Time;durP1;ratioP1;P1;durP2;ratioP2;P2;SDS_P1;SDS_P2;PMS_P1;PMS_P2;Temp;Humidity;BMP_temperature;BMP_pressure;BME280_temperature;BME280_humidity;BME280_pressure;Samples;Min_cycle;Max_cycle;Signal;HPM_P1;HPM_P2
2021/11/21 00:01:41;;;;;;;50.50;22.03;;;10.00;86.70;;;;;;5101921;28;20519;-83
2021/11/21 00:04:07;;;;;;;57.60;23.27;;;10.10;86.80;;;;;;5101548;28;20191;-84
2021/11/21 00:06:33;;;;;;;53.03;20.80;;;10.10;86.60;;;;;;5101778;28;20179;-83
2021/11/21 00:08:58;;;;;;;48.33;23.60;;;10.10;86.80;;;;;;5107396;28;20235;-84
2021/11/21 00:11:24;;;;;;;58.20;23.53;;;10.20;86.90;;;;;;5110631;28;20196;-84
2021/11/21 00:13:51;;;;;;;50.43;23.17;;;10.20;86.80;;;;;;5090277;28;20291;-84
2021/11/21 00:16:18;;;;;;;55.42;23.95;;;10.20;86.90;;;;;;5106660;28;20224;-84
2021/11/21 00:18:44;;;;;;;51.65;20.35;;;10.10;86.80;;;;;;5099357;28;20180;-85
2021/11/21 00:21:10;;;;;;;48.80;21.20;;;10.30;87.00;;;;;;5079107;28;20180;-84
2021/11/21 00:23:36;;;;;;;48.30;19.90;;;10.30;86.80;;;;;;5095489;28;20537;-84
2021/11/21 00:26:02;;;;;;;52.53;20.33;;;10.30;86.60;;;;;;5082614;28;20199;-84
2021/11/21 00:28:28;;;;;;;44.40;19.23;;;10.40;86.40;;;;;;5084229;28;20302;-83
2021/11/21 00:30:54;;;;;;;34.20;18.50;;;10.40;86.40;;;;;;5085042;28;20410;-84
2021/11/21 00:33:20;;;;;;;40.87;18.77;;;10.40;86.30;;;;;;5084438;28;20183;-83
2021/11/21 00:35:46;;;;;;;44.03;21.50;;;10.50;86.10;;;;;;5082398;28;20834;-84
2021/11/21 00:38:12;;;;;;;48.47;20.13;;;10.50;85.60;;;;;;5100469;28;20819;-83
2021/11/21 00:40:38;;;;;;;44.20;17.08;;;10.60;85.40;;;;;;5096885;28;20928;-84
2021/11/21 00:43:04;;;;;;;49.55;18.48;;;10.50;85.50;;;;;;5095688;28;20624;-84
2021/11/21 00:45:30;;;;;;;38.60;18.20;;;10.60;85.30;;;;;;5099901;28;20199;-84
2021/11/21 00:47:57;;;;;;;39.95;19.70;;;10.50;85.00;;;;;;5092508;28;20186;-84
2021/11/21 00:50:29;;;;;;;44.55;19.77;;;10.50;85.30;;;;;;5081144;28;20187;-83
2021/11/21 00:53:00;;;;;;;52.00;20.20;;;10.50;85.40;;;;;;5080845;28;20179;-84
2021/11/21 00:58:07;;;;;;;46.50;19.77;;;10.40;85.50;;;;;;5098983;28;20263;-83
2021/11/21 01:00:34;;;;;;;51.97;21.15;;;10.30;85.70;;;;;;5080560;28;20221;-84
2021/11/21 01:03:00;;;;;;;45.30;22.75;;;10.10;86.10;;;;;;5073304;28;20183;-84
2021/11/21 01:05:26;;;;;;;43.73;19.80;;;10.20;86.40;;;;;;5080716;28;20208;-83
2021/11/21 01:07:52;;;;;;;53.77;21.47;;;10.30;86.10;;;;;;5098491;28;20445;-84
2021/11/21 01:10:19;;;;;;;51.93;21.00;;;10.10;86.10;;;;;;5080631;28;20422;-83
2021/11/21 01:12:46;;;;;;;42.28;19.83;;;10.10;86.50;;;;;;5080391;28;20191;-83
2021/11/21 01:15:15;;;;;;;50.85;20.65;;;10.10;86.80;;;;;;5080274;28;20594;-83
2021/11/21 01:17:41;;;;;;;49.65;20.20;;;10.20;86.70;;;;;;5098366;28;20242;-83
2021/11/21 01:20:09;;;;;;;48.63;21.47;;;10.10;86.80;;;;;;5064498;28;20718;-83
2021/11/21 01:22:36;;;;;;;50.85;23.35;;;10.00;86.90;;;;;;5099275;28;20418;-84
2021/11/21 01:25:05;;;;;;;54.75;23.77;;;10.00;87.10;;;;;;5099216;28;20282;-83
2021/11/21 01:27:31;;;;;;;53.38;22.35;;;10.00;87.20;;;;;;5099797;28;20239;-83
2021/11/21 01:29:56;;;;;;;53.13;21.03;;;10.30;87.20;;;;;;5081680;28;20207;-83
2021/11/21 01:32:22;;;;;;;45.00;19.70;;;10.40;86.80;;;;;;5083871;28;20209;-83
2021/11/21 01:34:48;;;;;;;50.40;22.17;;;10.40;86.50;;;;;;5106420;28;20195;-84
2021/11/21 01:37:14;;;;;;;46.17;22.07;;;10.40;86.40;;;;;;5113860;28;20693;-84
2021/11/21 01:39:40;;;;;;;77.63;22.03;;;10.30;86.50;;;;;;5095050;28;20422;-84
2021/11/21 01:42:08;;;;;;;51.25;22.25;;;10.20;86.50;;;;;;5111334;28;20236;-83
2021/11/21 01:44:34;;;;;;;51.03;22.27;;;10.20;86.60;;;;;;5102313;28;20195;-82
2021/11/21 01:46:59;;;;;;;51.47;21.43;;;10.10;86.90;;;;;;5083227;28;20187;-84
2021/11/21 01:49:25;;;;;;;51.43;21.20;;;10.10;87.00;;;;;;5098837;28;20429;-83
2021/11/21 01:51:51;;;;;;;52.70;20.33;;;10.10;87.10;;;;;;5097908;28;20221;-83
2021/11/21 01:54:17;;;;;;;54.07;21.20;;;10.10;87.20;;;;;;5097530;28;20202;-82
2021/11/21 01:56:45;;;;;;;48.28;21.90;;;10.20;87.20;;;;;;5084629;28;20195;-82
2021/11/21 01:59:10;;;;;;;57.22;23.95;;;10.50;86.80;;;;;;5064399;28;20188;-80
2021/11/21 02:01:36;;;;;;;52.37;19.63;;;10.60;86.10;;;;;;5081856;28;20172;-83
2021/11/21 02:04:03;;;;;;;46.83;21.43;;;10.70;85.60;;;;;;5082705;28;20674;-82
2021/11/21 02:06:29;;;;;;;39.90;18.73;;;10.70;85.30;;;;;;5069763;28;20525;-84
2021/11/21 02:08:56;;;;;;;52.00;20.75;;;10.60;85.30;;;;;;5092753;28;20225;-83
2021/11/21 02:11:24;;;;;;;49.95;18.98;;;10.50;85.40;;;;;;5095951;28;20171;-83
2021/11/21 02:13:51;;;;;;;45.13;20.20;;;10.30;85.60;;;;;;5118918;28;20218;-82
2021/11/21 02:16:18;;;;;;;39.40;16.98;;;10.20;85.80;;;;;;5103628;28;20204;-83
2021/11/21 02:18:46;;;;;;;38.40;18.98;;;10.20;86.20;;;;;;5102615;28;20188;-83
2021/11/21 02:21:12;;;;;;;47.20;19.27;;;10.20;86.30;;;;;;5091003;28;20202;-83
2021/11/21 02:23:38;;;;;;;43.83;18.52;;;10.30;86.40;;;;;;5083173;28;20211;-84
2021/11/21 02:26:04;;;;;;;44.17;19.77;;;10.20;86.40;;;;;;5101095;28;20612;-83
2021/11/21 02:28:31;;;;;;;44.47;18.60;;;10.30;86.50;;;;;;5083259;28;20478;-83
2021/11/21 02:30:57;;;;;;;46.83;20.10;;;10.50;86.40;;;;;;5100880;28;20418;-83
2021/11/21 02:33:23;;;;;;;52.33;18.15;;;10.50;86.20;;;;;;5082775;28;20247;-84
2021/11/21 02:35:51;;;;;;;42.13;17.47;;;10.40;86.10;;;;;;5083530;28;20276;-84
2021/11/21 02:38:20;;;;;;;47.78;19.27;;;10.30;86.20;;;;;;5100660;28;20686;-84
2021/11/21 02:40:49;;;;;;;51.70;21.08;;;10.30;86.30;;;;;;5083570;28;20237;-84
2021/11/21 02:43:17;;;;;;;45.13;19.35;;;10.20;86.40;;;;;;5074447;28;20243;-84
2021/11/21 02:45:44;;;;;;;50.10;19.65;;;10.40;87.10;;;;;;5083141;28;20266;-84
2021/11/21 02:48:10;;;;;;;41.70;18.75;;;10.60;85.80;;;;;;5088013;28;20184;-84
2021/11/21 02:50:36;;;;;;;47.40;19.90;;;10.50;85.80;;;;;;5082817;28;20207;-84
2021/11/21 02:53:02;;;;;;;40.75;18.70;;;10.50;86.10;;;;;;5099492;28;20418;-84
2021/11/21 02:55:31;;;;;;;41.63;19.10;;;10.40;85.90;;;;;;5099362;28;20231;-84
2021/11/21 02:57:58;;;;;;;40.67;18.17;;;10.40;85.90;;;;;;5081948;28;20211;-84
2021/11/21 03:00:24;;;;;;;46.38;18.55;;;10.30;86.20;;;;;;5060654;28;20229;-84
2021/11/21 03:02:50;;;;;;;41.92;19.55;;;10.20;86.50;;;;;;5100056;28;20207;-84
2021/11/21 03:05:18;;;;;;;38.95;18.88;;;10.10;86.70;;;;;;5081083;28;20203;-84
2021/11/21 03:07:45;;;;;;;41.80;18.30;;;10.10;87.00;;;;;;5081306;28;20546;-84
2021/11/21 03:10:14;;;;;;;37.10;16.40;;;10.10;87.20;;;;;;5098526;28;20602;-84
2021/11/21 03:12:40;;;;;;;47.92;20.20;;;10.20;87.30;;;;;;5079321;28;20187;-84
2021/11/21 03:15:06;;;;;;;40.58;17.10;;;10.20;87.20;;;;;;5095431;28;20216;-84
2021/11/21 03:17:32;;;;;;;42.08;19.08;;;10.30;87.40;;;;;;5077842;28;20296;-84
2021/11/21 03:19:58;;;;;;;43.40;19.53;;;10.50;87.00;;;;;;5078075;28;20212;-83
2021/11/21 03:22:24;;;;;;;41.83;18.57;;;10.30;86.80;;;;;;5083897;28;20184;-84
2021/11/21 03:24:49;;;;;;;43.30;17.87;;;10.30;86.90;;;;;;5084197;28;20454;-84
2021/11/21 03:27:15;;;;;;;47.00;18.80;;;10.40;87.00;;;;;;5101973;28;20187;-84
2021/11/21 03:29:41;;;;;;;41.70;19.00;;;10.30;87.10;;;;;;5084737;28;20172;-84
2021/11/21 03:32:07;;;;;;;56.90;18.80;;;10.50;86.80;;;;;;5083706;28;20509;-84
2021/11/21 03:34:37;;;;;;;48.95;18.98;;;10.60;86.30;;;;;;5083064;28;20472;-83
2021/11/21 03:37:04;;;;;;;44.72;18.30;;;10.60;86.10;;;;;;5079338;28;20214;-84
2021/11/21 03:39:30;;;;;;;46.55;19.40;;;10.50;86.10;;;;;;5094522;28;20183;-84
2021/11/21 03:41:55;;;;;;;45.37;20.50;;;10.40;86.10;;;;;;5098403;28;20156;-84
2021/11/21 03:44:21;;;;;;;47.13;21.40;;;10.30;86.30;;;;;;5081139;28;20638;-83
2021/11/21 03:46:47;;;;;;;41.93;20.07;;;10.30;86.50;;;;;;5086179;28;20174;-83
2021/11/21 03:49:13;;;;;;;43.83;19.13;;;10.20;86.70;;;;;;5102646;28;20449;-84
2021/11/21 03:51:39;;;;;;;48.30;19.73;;;10.10;87.00;;;;;;5099807;28;20475;-84
2021/11/21 03:54:05;;;;;;;41.83;18.57;;;10.10;87.20;;;;;;5081330;28;20824;-84
2021/11/21 03:56:30;;;;;;;43.30;21.20;;;10.20;87.40;;;;;;5082531;28;20445;-84
2021/11/21 03:58:56;;;;;;;42.63;18.47;;;10.20;87.20;;;;;;5081541;28;20183;-84
2021/11/21 04:01:23;;;;;;;41.03;16.50;;;10.20;87.40;;;;;;5081607;28;20422;-84
2021/11/21 04:03:48;;;;;;;45.85;19.63;;;10.20;87.40;;;;;;5080890;28;20448;-84
2021/11/21 04:06:14;;;;;;;47.33;18.03;;;10.20;87.40;;;;;;5081072;28;20258;-84
2021/11/21 04:08:42;;;;;;;45.80;19.23;;;10.30;87.50;;;;;;5081201;28;20433;-84
2021/11/21 04:11:08;;;;;;;42.42;17.20;;;10.50;87.40;;;;;;5081692;28;20512;-83
2021/11/21 04:13:34;;;;;;;34.72;17.15;;;10.60;86.50;;;;;;5080617;28;20215;-84
2021/11/21 04:15:59;;;;;;;43.63;17.30;;;10.50;86.40;;;;;;5102641;28;20221;-84
2021/11/21 04:18:25;;;;;;;37.63;17.77;;;10.50;86.40;;;;;;5090561;28;20450;-83
2021/11/21 04:20:51;;;;;;;45.17;18.37;;;10.30;86.40;;;;;;5110838;28;20179;-84
2021/11/21 04:23:17;;;;;;;39.77;18.00;;;10.20;86.60;;;;;;5087903;28;20230;-83
2021/11/21 04:25:42;;;;;;;36.80;17.40;;;10.40;86.80;;;;;;5064291;28;20484;-84
2021/11/21 04:28:11;;;;;;;37.33;17.80;;;10.40;86.70;;;;;;5081333;28;20418;-84
2021/11/21 04:30:38;;;;;;;46.00;18.02;;;10.40;86.70;;;;;;5099668;28;20187;-84
2021/11/21 04:33:03;;;;;;;44.22;18.92;;;10.20;86.80;;;;;;5081280;28;20242;-84
2021/11/21 04:35:30;;;;;;;37.83;17.40;;;10.10;87.90;;;;;;5081950;28;20592;-84
2021/11/21 04:37:56;;;;;;;44.97;17.40;;;10.10;87.40;;;;;;5082355;28;20465;-84
2021/11/21 04:40:21;;;;;;;39.70;18.07;;;10.10;87.70;;;;;;5081203;28;20183;-84
2021/11/21 04:42:47;;;;;;;40.37;17.27;;;10.10;87.90;;;;;;5099098;28;20493;-83
2021/11/21 04:45:14;;;;;;;48.50;20.13;;;10.20;87.90;;;;;;5099651;28;20438;-84
2021/11/21 04:47:40;;;;;;;45.05;17.52;;;10.10;88.00;;;;;;5081678;28;20489;-83
2021/11/21 04:50:09;;;;;;;41.03;18.60;;;10.10;88.10;;;;;;5081820;28;20179;-84
2021/11/21 04:52:36;;;;;;;41.78;18.60;;;10.30;88.20;;;;;;5075760;28;20237;-83
2021/11/21 04:55:02;;;;;;;45.80;19.42;;;10.30;87.80;;;;;;5082435;28;20256;-83
2021/11/21 04:57:27;;;;;;;58.37;22.30;;;10.20;87.80;;;;;;5087586;28;20230;-83
2021/11/21 04:59:53;;;;;;;52.00;21.37;;;10.10;87.90;;;;;;5106864;28;20418;-83
2021/11/21 05:02:19;;;;;;;54.07;22.80;;;10.20;88.10;;;;;;5106923;28;20437;-83
2021/11/21 05:04:44;;;;;;;65.43;24.13;;;10.20;88.20;;;;;;5089518;28;20202;-82
2021/11/21 05:07:10;;;;;;;58.87;22.63;;;10.20;88.20;;;;;;5093188;28;20226;-84
2021/11/21 05:09:36;;;;;;;52.50;19.63;;;10.10;88.20;;;;;;5109418;28;20187;-83
2021/11/21 05:12:02;;;;;;;50.33;21.40;;;10.20;88.40;;;;;;5089039;28;20877;-84
2021/11/21 05:14:27;;;;;;;56.40;22.20;;;10.20;88.40;;;;;;5081364;28;20215;-84
2021/11/21 05:16:53;;;;;;;52.43;22.40;;;10.30;88.30;;;;;;5081390;28;20465;-84
2021/11/21 05:19:19;;;;;;;57.43;21.50;;;10.30;88.20;;;;;;5099829;28;20180;-84
2021/11/21 05:21:45;;;;;;;62.10;22.60;;;10.30;88.10;;;;;;5086369;28;20183;-84
2021/11/21 05:24:11;;;;;;;49.63;22.10;;;10.30;88.00;;;;;;5081149;28;20200;-85
2021/11/21 05:26:36;;;;;;;53.83;22.15;;;10.30;88.00;;;;;;5081824;28;20191;-84
2021/11/21 05:29:03;;;;;;;51.00;22.03;;;10.20;87.90;;;;;;5101222;28;20172;-84
2021/11/21 05:31:28;;;;;;;48.03;21.25;;;10.20;88.00;;;;;;5088469;28;20180;-84
2021/11/21 05:33:54;;;;;;;44.83;20.50;;;10.20;87.80;;;;;;5099924;28;20207;-84
2021/11/21 05:36:20;;;;;;;53.67;22.80;;;10.20;88.00;;;;;;5083042;28;20600;-84
2021/11/21 05:38:46;;;;;;;46.30;20.57;;;10.10;88.10;;;;;;5085441;28;20429;-84
2021/11/21 05:41:12;;;;;;;51.42;21.95;;;10.20;88.20;;;;;;5087083;28;20190;-84
2021/11/21 05:43:38;;;;;;;48.37;23.67;;;10.20;88.30;;;;;;5088344;28;20200;-84
2021/11/21 05:46:04;;;;;;;69.25;25.75;;;10.20;88.40;;;;;;5096447;28;20630;-84
2021/11/21 05:48:31;;;;;;;45.05;22.52;;;10.20;88.40;;;;;;5120763;28;20202;-84
2021/11/21 05:50:57;;;;;;;57.97;23.05;;;10.20;88.50;;;;;;5094971;28;20184;-84
2021/11/21 05:53:23;;;;;;;49.90;21.98;;;10.10;88.60;;;;;;5094636;28;20191;-84
2021/11/21 05:55:49;;;;;;;50.87;23.20;;;10.30;88.50;;;;;;5096494;28;20186;-84
2021/11/21 05:58:18;;;;;;;55.60;22.33;;;10.30;88.40;;;;;;5089965;28;20275;-84
2021/11/21 06:00:44;;;;;;;52.30;23.52;;;10.30;88.40;;;;;;5097347;28;20168;-84
2021/11/21 06:03:10;;;;;;;44.72;21.38;;;10.40;88.30;;;;;;5087312;28;20650;-84
2021/11/21 06:05:36;;;;;;;49.80;22.43;;;10.40;88.30;;;;;;5086577;28;20203;-85
2021/11/21 06:08:06;;;;;;;48.43;21.57;;;10.50;88.30;;;;;;5087353;28;20433;-85
2021/11/21 06:10:32;;;;;;;49.33;21.38;;;10.30;88.20;;;;;;5081983;28;20569;-85
2021/11/21 06:12:58;;;;;;;48.75;23.15;;;10.40;88.40;;;;;;5098831;28;20654;-84
2021/11/21 06:15:24;;;;;;;58.20;22.97;;;10.40;88.40;;;;;;5081134;28;20206;-84
2021/11/21 06:17:49;;;;;;;53.93;23.50;;;10.30;88.40;;;;;;5079880;28;20615;-84
2021/11/21 06:20:15;;;;;;;52.30;22.13;;;10.20;88.70;;;;;;5103567;28;20187;-84
2021/11/21 06:22:41;;;;;;;46.83;22.27;;;10.20;89.00;;;;;;5084735;28;20172;-85
2021/11/21 06:25:08;;;;;;;49.70;20.57;;;10.20;89.20;;;;;;5086270;28;20659;-84
2021/11/21 06:27:34;;;;;;;47.75;20.88;;;10.20;89.30;;;;;;5083605;28;20799;-84
2021/11/21 06:30:01;;;;;;;40.85;20.38;;;10.20;89.40;;;;;;5082179;28;20238;-84
2021/11/21 06:32:27;;;;;;;42.75;18.80;;;9.90;90.00;;;;;;5082117;28;20176;-85
2021/11/21 06:34:52;;;;;;;51.63;19.70;;;9.90;90.50;;;;;;5083049;28;20225;-84
2021/11/21 06:37:18;;;;;;;40.33;17.47;;;10.00;90.80;;;;;;5095858;28;20258;-85
2021/11/21 06:39:44;;;;;;;48.63;20.87;;;10.00;91.10;;;;;;5079013;28;20168;-84
2021/11/21 06:42:12;;;;;;;42.83;19.53;;;10.00;91.20;;;;;;5083338;28;20418;-84
2021/11/21 06:44:38;;;;;;;51.13;20.77;;;10.00;91.40;;;;;;5085068;28;20279;-84
2021/11/21 06:47:04;;;;;;;47.00;21.40;;;9.90;91.70;;;;;;5092050;28;20189;-84
2021/11/21 06:49:30;;;;;;;48.80;21.27;;;9.90;92.00;;;;;;5102909;28;20597;-85
2021/11/21 06:51:56;;;;;;;44.67;21.40;;;10.00;92.20;;;;;;5085527;28;20487;-84
2021/11/21 06:54:22;;;;;;;41.88;17.73;;;10.10;92.30;;;;;;5086315;28;20449;-84
2021/11/21 06:56:48;;;;;;;34.27;16.17;;;10.20;92.20;;;;;;5093371;28;20200;-84
2021/11/21 06:59:14;;;;;;;36.90;17.05;;;10.10;92.10;;;;;;5113717;28;20429;-84
2021/11/21 07:01:41;;;;;;;39.27;15.60;;;10.10;92.10;;;;;;5093331;28;20200;-84
2021/11/21 07:04:08;;;;;;;34.67;15.82;;;10.20;92.00;;;;;;5088394;28;20237;-85
2021/11/21 07:06:35;;;;;;;28.55;13.75;;;10.10;91.90;;;;;;5083064;28;20215;-85
2021/11/21 07:09:03;;;;;;;41.40;15.40;;;9.90;91.80;;;;;;5100005;28;20634;-85
2021/11/21 07:11:29;;;;;;;51.78;18.10;;;9.90;91.80;;;;;;5082434;28;20650;-85
2021/11/21 07:13:55;;;;;;;42.93;16.70;;;9.90;92.00;;;;;;5079893;28;20226;-83
2021/11/21 07:16:21;;;;;;;40.78;15.95;;;10.00;92.00;;;;;;5102335;28;20421;-84
2021/11/21 07:18:47;;;;;;;41.23;18.47;;;10.10;91.90;;;;;;5088465;28;20654;-84
2021/11/21 07:21:12;;;;;;;41.00;15.98;;;10.20;91.90;;;;;;5098970;28;20735;-84
2021/11/21 07:23:38;;;;;;;41.20;17.47;;;10.40;91.90;;;;;;5083909;28;20257;-84
2021/11/21 07:26:04;;;;;;;43.90;17.73;;;10.30;91.50;;;;;;5089364;28;20267;-84
2021/11/21 07:28:30;;;;;;;46.17;17.60;;;10.40;91.40;;;;;;5085907;28;20207;-81
2021/11/21 07:30:56;;;;;;;32.65;13.65;;;10.50;91.40;;;;;;5100614;28;20422;-81
2021/11/21 07:33:22;;;;;;;38.67;14.73;;;10.50;91.10;;;;;;5082517;28;20180;-80
2021/11/21 07:35:48;;;;;;;35.13;12.95;;;10.40;90.80;;;;;;5089721;28;20183;-80
2021/11/21 07:38:14;;;;;;;36.42;14.45;;;10.50;90.80;;;;;;5100930;28;20223;-81
2021/11/21 07:40:40;;;;;;;34.70;13.40;;;10.40;90.70;;;;;;5118738;28;20190;-81
2021/11/21 07:43:07;;;;;;;29.88;13.15;;;10.30;90.60;;;;;;5083124;28;20429;-81
2021/11/21 07:45:33;;;;;;;36.50;12.95;;;10.30;90.60;;;;;;5114352;28;20199;-81
2021/11/21 07:47:58;;;;;;;39.37;12.50;;;10.30;90.50;;;;;;5096193;28;20182;-81
2021/11/21 07:50:24;;;;;;;33.87;12.07;;;10.20;90.40;;;;;;5095556;28;20271;-81
2021/11/21 07:52:50;;;;;;;26.83;11.90;;;10.20;90.40;;;;;;5111838;28;20179;-81
2021/11/21 07:55:15;;;;;;;32.10;13.53;;;10.50;90.50;;;;;;5080510;28;20487;-80
2021/11/21 07:57:41;;;;;;;27.97;12.00;;;10.60;90.40;;;;;;5100165;28;20196;-80
2021/11/21 08:00:10;;;;;;;30.13;14.30;;;10.60;90.40;;;;;;5081832;28;20180;-81
2021/11/21 08:02:37;;;;;;;38.33;12.35;;;10.60;90.40;;;;;;5081188;28;20520;-80
2021/11/21 08:05:04;;;;;;;31.33;11.57;;;10.60;90.40;;;;;;5098858;28;20623;-81
2021/11/21 08:07:30;;;;;;;31.60;12.23;;;10.50;90.20;;;;;;5080929;28;20218;-81
2021/11/21 08:09:56;;;;;;;33.15;12.27;;;10.50;90.10;;;;;;5082001;28;20708;-82
2021/11/21 08:12:22;;;;;;;40.63;14.47;;;10.40;89.90;;;;;;5082229;28;20184;-82
2021/11/21 08:14:47;;;;;;;22.80;10.82;;;10.40;90.00;;;;;;5082000;28;20222;-83
2021/11/21 08:17:13;;;;;;;29.33;13.23;;;10.50;90.10;;;;;;5100174;28;20204;-83
2021/11/21 08:19:39;;;;;;;33.83;12.70;;;10.50;90.00;;;;;;5082670;28;20414;-82
2021/11/21 08:22:05;;;;;;;33.03;14.67;;;10.60;90.00;;;;;;5101536;28;20635;-82
2021/11/21 08:24:31;;;;;;;34.00;13.67;;;10.60;90.10;;;;;;5080285;28;20789;-84
2021/11/21 08:26:57;;;;;;;27.50;11.97;;;10.50;90.00;;;;;;5081513;28;20517;-82
2021/11/21 08:29:23;;;;;;;30.75;11.95;;;10.50;90.00;;;;;;5081897;28;20519;-82
2021/11/21 08:31:50;;;;;;;38.90;14.73;;;10.40;89.90;;;;;;5099881;28;20187;-82
2021/11/21 08:34:17;;;;;;;26.42;12.40;;;10.30;90.10;;;;;;5099057;28;20809;-82
2021/11/21 08:36:43;;;;;;;27.85;6.78;;;10.30;90.30;;;;;;5087955;28;20231;-82
2021/11/21 08:39:09;;;;;;;16.65;5.22;;;10.30;89.60;;;;;;5111881;28;20204;-81
2021/11/21 08:41:35;;;;;;;8.32;4.78;;;9.80;88.10;;;;;;5111324;28;20191;-82
2021/11/21 08:44:01;;;;;;;14.73;6.03;;;9.60;88.10;;;;;;5108862;28;20187;-82
2021/11/21 08:46:27;;;;;;;17.88;5.90;;;9.60;88.80;;;;;;5084004;28;20421;-82
2021/11/21 08:48:53;;;;;;;12.27;5.00;;;9.60;89.10;;;;;;5085035;28;20183;-81
2021/11/21 08:51:21;;;;;;;17.65;5.07;;;9.60;89.10;;;;;;5119355;28;20190;-82
2021/11/21 08:53:47;;;;;;;13.32;4.85;;;9.50;89.20;;;;;;5099278;28;20203;-83
2021/11/21 08:56:13;;;;;;;24.90;5.32;;;9.50;89.40;;;;;;5081324;28;20184;-82
2021/11/21 08:58:39;;;;;;;14.95;5.43;;;9.50;89.70;;;;;;5081191;28;20211;-82
2021/11/21 09:01:05;;;;;;;13.13;5.40;;;9.50;89.60;;;;;;5081679;28;20180;-83
2021/11/21 09:03:31;;;;;;;20.10;6.37;;;9.60;89.50;;;;;;5098142;28;20450;-83
2021/11/21 09:05:57;;;;;;;19.45;6.22;;;9.70;89.70;;;;;;5097078;28;20260;-84
2021/11/21 09:08:27;;;;;;;12.50;7.00;;;9.70;89.40;;;;;;5062702;28;20233;-84
2021/11/21 09:10:54;;;;;;;14.23;5.85;;;9.80;89.40;;;;;;5097136;28;20180;-82
2021/11/21 09:13:20;;;;;;;15.13;6.47;;;9.90;89.40;;;;;;5063055;28;20224;-82
2021/11/21 09:15:46;;;;;;;21.13;7.22;;;9.90;89.10;;;;;;5065061;28;20179;-83
2021/11/21 09:18:12;;;;;;;13.05;5.53;;;9.80;88.80;;;;;;5078415;28;20209;-82
2021/11/21 09:20:38;;;;;;;12.40;6.45;;;9.90;88.60;;;;;;5081253;28;20266;-83
2021/11/21 09:23:12;;;;;;;9.40;4.40;;;10.00;88.60;;;;;;5104379;28;20217;-84
2021/11/21 09:25:38;;;;;;;16.55;5.50;;;10.10;88.40;;;;;;5104570;28;20279;-83
2021/11/21 09:28:04;;;;;;;10.60;5.65;;;10.00;88.10;;;;;;5083241;28;20188;-85
2021/11/21 09:30:31;;;;;;;9.70;4.33;;;10.00;87.90;;;;;;5099055;28;20176;-85
2021/11/21 09:32:56;;;;;;;16.05;5.60;;;9.90;87.90;;;;;;5079921;28;20475;-85
2021/11/21 09:35:23;;;;;;;8.37;4.10;;;10.00;88.00;;;;;;5100828;28;20196;-86
2021/11/21 09:37:50;;;;;;;9.00;3.50;;;10.10;88.20;;;;;;5082892;28;20199;-88
2021/11/21 09:40:19;;;;;;;5.93;3.50;;;10.00;88.00;;;;;;5083068;28;20175;-90
2021/11/21 09:42:46;;;;;;;12.55;4.10;;;10.00;88.00;;;;;;5063515;28;20311;-88
2021/11/21 09:45:14;;;;;;;6.57;3.45;;;10.10;87.90;;;;;;5077325;28;20207;-87
2021/11/21 09:47:51;;;;;;;7.07;3.67;;;10.10;87.80;;;;;;5108769;28;20176;-87
2021/11/21 09:50:17;;;;;;;15.60;4.45;;;10.50;88.00;;;;;;5081910;28;20294;-87
2021/11/21 09:52:43;;;;;;;8.68;5.07;;;10.60;87.80;;;;;;5086218;28;20176;-86
2021/11/21 09:55:09;;;;;;;14.63;3.93;;;10.70;88.00;;;;;;5095794;28;20773;-86
2021/11/21 09:57:36;;;;;;;9.40;3.97;;;10.80;87.80;;;;;;5085055;28;20208;-86
2021/11/21 10:00:10;;;;;;;18.00;4.15;;;10.80;87.00;;;;;;5100397;28;20180;-86
2021/11/21 10:02:39;;;;;;;4.75;3.33;;;10.80;86.30;;;;;;5081251;28;20229;-87
2021/11/21 10:05:09;;;;;;;10.07;3.83;;;10.70;85.60;;;;;;5062845;28;20228;-87
2021/11/21 10:07:37;;;;;;;8.30;4.18;;;10.70;85.70;;;;;;5063222;28;20191;-87
2021/11/21 10:10:12;;;;;;;6.55;2.95;;;10.80;85.80;;;;;;5080469;28;20180;-88
2021/11/21 10:12:42;;;;;;;4.45;3.05;;;10.70;85.70;;;;;;5079894;28;20176;-87
2021/11/21 10:15:13;;;;;;;12.32;3.13;;;10.50;85.60;;;;;;5097875;28;20268;-88
2021/11/21 10:17:46;;;;;;;12.05;4.40;;;10.60;85.50;;;;;;5079730;28;20279;-88
2021/11/21 10:20:21;;;;;;;9.82;1.92;;;10.70;85.20;;;;;;5063069;28;20225;-86
2021/11/21 10:23:07;;;;;;;6.82;2.83;;;10.50;85.00;;;;;;5083580;28;20183;-87
2021/11/21 10:25:33;;;;;;;9.20;3.40;;;10.50;84.70;;;;;;5079816;28;20333;-86
2021/11/21 10:28:12;;;;;;;8.00;3.35;;;10.60;84.70;;;;;;5080002;28;20180;-86
2021/11/21 10:31:01;;;;;;;12.52;3.83;;;10.60;84.50;;;;;;5080540;28;20190;-87
2021/11/21 10:33:39;;;;;;;11.35;3.13;;;10.60;84.20;;;;;;5080150;28;20186;-86
2021/11/21 10:36:10;;;;;;;11.20;3.90;;;10.60;84.30;;;;;;5064107;28;20176;-86
2021/11/21 10:38:57;;;;;;;6.05;2.97;;;10.60;84.40;;;;;;5064858;28;20203;-85
2021/11/21 10:41:28;;;;;;;8.43;3.08;;;10.60;84.20;;;;;;5079825;28;20171;-86
2021/11/21 10:44:06;;;;;;;12.88;2.78;;;10.60;83.90;;;;;;5083316;28;20204;-86
2021/11/21 10:46:36;;;;;;;9.10;2.63;;;10.60;83.80;;;;;;5087114;28;20163;-85
2021/11/21 10:49:17;;;;;;;8.55;2.67;;;10.70;84.10;;;;;;5098964;28;20179;-85
2021/11/21 10:51:46;;;;;;;6.95;2.45;;;10.80;84.30;;;;;;5093337;28;20567;-86
2021/11/21 10:54:21;;;;;;;8.98;2.78;;;10.80;83.80;;;;;;5098679;28;20292;-85
2021/11/21 10:56:54;;;;;;;7.00;3.30;;;10.70;83.60;;;;;;5081848;28;20203;-85
2021/11/21 10:59:47;;;;;;;10.40;2.28;;;10.80;84.20;;;;;;5083105;28;20165;-83
2021/11/21 11:02:29;;;;;;;14.48;2.90;;;10.60;83.50;;;;;;5084940;28;20180;-83
2021/11/21 11:04:58;;;;;;;10.13;2.85;;;10.60;83.60;;;;;;5079111;28;20187;-82
2021/11/21 11:07:24;;;;;;;6.68;2.55;;;10.70;83.80;;;;;;5083024;28;20634;-83
2021/11/21 11:09:52;;;;;;;4.57;2.10;;;10.80;84.00;;;;;;5083154;28;20179;-83
2021/11/21 11:12:19;;;;;;;6.97;2.92;;;11.00;84.10;;;;;;5102683;28;20761;-83
2021/11/21 11:14:45;;;;;;;9.57;2.53;;;11.20;83.80;;;;;;5102029;28;20214;-83
2021/11/21 11:17:10;;;;;;;6.40;2.97;;;11.30;83.40;;;;;;5103419;28;20204;-83
2021/11/21 11:19:37;;;;;;;7.87;3.17;;;11.30;82.70;;;;;;5091984;28;20286;-83
2021/11/21 11:22:04;;;;;;;8.48;2.50;;;11.20;82.60;;;;;;5119619;28;20179;-84
2021/11/21 11:24:33;;;;;;;7.97;2.25;;;11.30;82.80;;;;;;5090200;28;20211;-82
2021/11/21 11:27:01;;;;;;;6.88;2.78;;;11.30;82.50;;;;;;5095563;28;20203;-83
2021/11/21 11:29:33;;;;;;;14.00;2.85;;;11.20;81.80;;;;;;5096092;28;20184;-82
2021/11/21 11:32:18;;;;;;;7.22;2.22;;;11.30;81.40;;;;;;5111745;28;20266;-83
2021/11/21 11:34:44;;;;;;;10.00;2.40;;;11.40;80.50;;;;;;5084126;28;20228;-83
2021/11/21 11:37:13;;;;;;;5.27;2.20;;;11.30;79.70;;;;;;5082305;28;20678;-83
2021/11/21 11:39:42;;;;;;;11.93;2.25;;;11.40;78.70;;;;;;5101509;28;20180;-86
2021/11/21 11:42:33;;;;;;;5.82;1.80;;;11.40;77.90;;;;;;5085352;28;20199;-83
2021/11/21 11:45:00;;;;;;;9.60;2.00;;;11.10;77.50;;;;;;5094714;28;20187;-83
2021/11/21 11:47:27;;;;;;;5.82;2.17;;;11.30;78.50;;;;;;5087276;28;20184;-84
2021/11/21 11:49:53;;;;;;;5.15;2.58;;;11.30;78.90;;;;;;5087487;28;20171;-83
2021/11/21 11:52:52;;;;;;;8.02;3.03;;;11.10;78.80;;;;;;5087274;28;20218;-83
2021/11/21 11:55:18;;;;;;;12.63;2.95;;;11.10;79.50;;;;;;5084969;28;20208;-83
2021/11/21 11:57:45;;;;;;;8.30;1.57;;;11.00;79.10;;;;;;5086710;28;20272;-83
2021/11/21 12:00:32;;;;;;;6.07;1.85;;;11.10;78.90;;;;;;5085525;28;20433;-84
2021/11/21 12:02:59;;;;;;;6.40;2.17;;;11.10;77.90;;;;;;5085513;28;20199;-83
2021/11/21 12:05:34;;;;;;;4.32;1.95;;;11.20;77.40;;;;;;5119155;28;20253;-83
2021/11/21 12:08:17;;;;;;;8.40;2.45;;;11.00;76.80;;;;;;5083833;28;20183;-82
2021/11/21 12:10:49;;;;;;;5.68;1.70;;;10.80;76.50;;;;;;5091147;28;20193;-81
2021/11/21 12:13:28;;;;;;;4.05;1.90;;;10.90;77.10;;;;;;5112492;28;20202;-83
2021/11/21 12:16:01;;;;;;;7.45;2.45;;;11.10;77.00;;;;;;5113897;28;20159;-82
2021/11/21 12:18:59;;;;;;;5.00;1.80;;;10.90;77.00;;;;;;5096711;28;20293;-81
2021/11/21 12:21:45;;;;;;;5.47;1.50;;;11.10;76.40;;;;;;5096099;28;20180;-83
2021/11/21 12:24:17;;;;;;;6.10;1.90;;;11.20;74.40;;;;;;5094307;28;20241;-81
2021/11/21 12:26:49;;;;;;;7.70;2.22;;;11.00;74.40;;;;;;5095529;28;20187;-83
2021/11/21 12:29:15;;;;;;;6.80;1.95;;;11.00;75.30;;;;;;5097049;28;20176;-83
2021/11/21 12:31:46;;;;;;;7.70;1.83;;;11.00;75.40;;;;;;5097364;28;20176;-84
2021/11/21 12:34:45;;;;;;;9.30;4.22;;;11.10;75.70;;;;;;5114311;28;20196;-84
2021/11/21 12:37:27;;;;;;;6.43;2.20;;;11.10;75.80;;;;;;5037162;28;20234;-83
2021/11/21 12:40:11;;;;;;;3.67;1.70;;;11.00;75.00;;;;;;5104040;28;20191;-83